Fazenda São Miguel Airstrip

BR-0045 · Goiás, Brasil

METAR pasados BR-0045 · Fazenda São Miguel Airstrip

A continuación puedes ver los METAR de los últimos días. Selecciona un año para ver los METAR más antiguos, desde el año 2007 en adelante.

19 de mayo de 2024

Hora Código Tiempo Temp. Visibilidad Cielo nuboso Viento METAR/SPECI
07:00
V
16 °C 10 km+ - Var Var 2 kt METAR SBBR 191000Z VRB02KT CAVOK 16/12 Q1022
07:00
V
16 °C 10 km+ - Var Var 2 kt METAR SBBR 191000Z VRB02KT CAVOK 16/12 Q1022
06:00
V
15 °C 10 km+ - 300° 300° 2 kt METAR SBBR 190900Z 30002KT CAVOK 15/12 Q1021
05:00
V
14 °C 10 km+ - 030° 030° 2 kt METAR SBBR 190800Z 03002KT CAVOK 14/12 Q1020
04:00
V
15 °C 10 km+ - 290° 290° 1 kt METAR SBBR 190700Z 29001KT CAVOK 15/12 Q1020
03:00
V
18 °C 10 km+ - 200° 200° 2 kt METAR SBBR 190600Z 20002KT CAVOK 18/12 Q1020
02:00
V
16 °C 10 km+ - 270° 270° 2 kt METAR SBBR 190500Z 27002KT CAVOK 16/12 Q1021
01:00
V
29 °C 10 km+ - 200° 200° 3 kt METAR SBBR 190400Z 20003KT CAVOK 29/12 Q1021
00:00
V
19 °C 10 km+ - 210° 210° 3 kt METAR SBBR 190300Z 21003KT CAVOK 19/13 Q1021

18 de mayo de 2024

Hora Código Tiempo Temp. Visibilidad Cielo nuboso Viento METAR/SPECI
23:00
V
20 °C 10 km+ - Var Var 2 kt METAR SBBR 190200Z VRB02KT CAVOK 20/13 Q1022
22:00
V
22 °C 10 km+ - 140° 140° 5 kt METAR SBBR 190100Z 14005KT 120V210 CAVOK 22/12 Q1022
21:00
V
22 °C 10 km+ - 170° 170° 3 kt METAR SBBR 190000Z 17003KT 110V240 CAVOK 22/12 Q1022
20:00
V
23 °C 10 km+ - 090° 090° 3 kt METAR SBBR 182300Z 09003KT 030V120 CAVOK 23/12 Q1021
19:00
V
24 °C 10 km+ - 130° 130° 6 kt METAR SBBR 182200Z 13006KT CAVOK 24/12 Q1021
18:00
V
25 °C 10 km+ - 140° 140° 6 kt METAR SBBR 182100Z 14006KT 110V190 CAVOK 25/12 Q1020
17:00
V
27 °C 10 km+ - 110° 110° 8 kt METAR SBBR 182000Z 11008KT CAVOK 27/11 Q1020
16:00
V
27 °C 10 km+ - 100° 100° 7 kt METAR SBBR 181900Z 10007KT 050V140 CAVOK 27/11 Q1020
15:00
V
27 °C 10 km+ - 060° 060° 6 kt METAR SBBR 181800Z 06006KT 010V140 CAVOK 27/11 Q1020
14:00
V
27 °C 10 km+ - 030° 030° 5 kt METAR SBBR 181700Z 03005KT 320V070 CAVOK 27/11 Q1020
13:00
V
27 °C 10 km+ - 090° 090° 6 kt METAR SBBR 181600Z 09006KT 330V130 9999 SCT049 27/11 Q1021
12:00
V
25 °C 10 km+ - Var Var 6 kt METAR SBBR 181500Z VRB06KT 9999 FEW046 25/11 Q1022
11:00
V
25 °C 10 km+ - 070° 070° 10 kt METAR SBBR 181400Z 07010KT 030V110 9999 FEW043 25/10 Q1023
10:00
V
24 °C 10 km+ - 090° 090° 9 kt METAR SBBR 181300Z 09009KT 060V130 CAVOK 24/12 Q1023
09:00
V
22 °C 10 km+ - Var Var 3 kt METAR SBBR 181200Z VRB03KT CAVOK 22/13 Q1023
08:00
V
18 °C 10 km+ - Var Var 1 kt METAR SBBR 181100Z VRB01KT CAVOK 18/12 Q1022
07:00
V
15 °C 10 km+ - Var Var 1 kt METAR SBBR 181000Z VRB01KT CAVOK 15/11 Q1022
06:00
V
13 °C 10 km+ - 360° 360° 0 kt METAR SBBR 180900Z 00000KT CAVOK 13/11 Q1021
05:00
V
14 °C 10 km+ - Var Var 2 kt METAR SBBR 180800Z VRB02KT CAVOK 14/11 Q1021
04:00
V
14 °C 10 km+ - Var Var 2 kt METAR SBBR 180700Z VRB02KT CAVOK 14/11 Q1020
03:00
V
14 °C 10 km+ - Var Var 2 kt METAR SBBR 180600Z VRB02KT CAVOK 14/11 Q1020
02:00
V
17 °C 10 km+ - Var Var 2 kt METAR SBBR 180500Z VRB02KT CAVOK 17/12 Q1021
01:00
V
17 °C 10 km+ - 360° 360° 0 kt METAR SBBR 180400Z 00000KT CAVOK 17/12 Q1021
00:00
V
18 °C 10 km+ - 360° 360° 0 kt METAR SBBR 180300Z 00000KT CAVOK 18/13 Q1022

17 de mayo de 2024

Hora Código Tiempo Temp. Visibilidad Cielo nuboso Viento METAR/SPECI
23:00
V
20 °C 10 km+ - 090° 090° 4 kt METAR SBBR 180200Z 09004KT CAVOK 20/12 Q1022
22:00
V
20 °C 10 km+ - 060° 060° 4 kt METAR SBBR 180100Z 06004KT CAVOK 20/13 Q1022
21:00
V
22 °C 10 km+ - 120° 120° 8 kt METAR SBBR 180000Z 12008KT CAVOK 22/12 Q1022
20:00
V
21 °C 10 km+ - 120° 120° 6 kt METAR SBBR 172300Z 12006KT CAVOK 21/12 Q1021
19:00
V
23 °C 10 km+ - 120° 120° 7 kt METAR SBBR 172200Z 12007KT CAVOK 23/12 Q1021
18:00
V
24 °C 10 km+ - 120° 120° 7 kt METAR SBBR 172100Z 12007KT CAVOK 24/12 Q1020
17:00
V
26 °C 10 km+ - 110° 110° 6 kt METAR SBBR 172000Z 11006KT CAVOK 26/11 Q1020
16:00
V
27 °C 10 km+ - 100° 100° 8 kt METAR SBBR 171900Z 10008KT 050V150 9999 FEW040 27/11 Q1020
15:00
V
27 °C 10 km+ - 130° 130° 10 kt METAR SBBR 171800Z 13010KT 100V170 9999 FEW040 27/11 Q1020
14:00
V
27 °C 10 km+ - 090° 090° 7 kt METAR SBBR 171700Z 09007KT 040V170 9999 FEW040 27/11 Q1021
13:00
V
27 °C 10 km+ - 100° 100° 5 kt METAR SBBR 171600Z 10005KT 9999 FEW030 27/12 Q1021
12:00
V
26 °C 10 km+ - 110° 110° 8 kt METAR SBBR 171500Z 11008KT 9999 FEW030 26/10 Q1022
11:00
V
25 °C 10 km+ - 090° 090° 10 kt METAR SBBR 171400Z 09010KT 050V130 9999 FEW030 25/13 Q1023
10:00
V
23 °C 10 km+ - 090° 090° 8 kt METAR SBBR 171300Z 09008KT 060V120 CAVOK 23/13 Q1023
09:00
V
22 °C 10 km+ - 090° 090° 5 kt METAR SBBR 171200Z 09005KT CAVOK 22/13 Q1024
08:00
V
17 °C 10 km+ - 330° 330° 1 kt METAR SBBR 171100Z 33001KT CAVOK 17/12 Q1023
07:00
V
15 °C 10 km+ - Var Var 1 kt METAR SBBR 171000Z VRB01KT CAVOK 15/11 Q1022
06:00
V
14 °C 10 km+ - Var Var 1 kt METAR SBBR 170900Z VRB01KT CAVOK 14/12 Q1022
05:00
V
15 °C 10 km+ - 360° 360° 0 kt METAR SBBR 170800Z 00000KT CAVOK 15/11 Q1021
04:00
V
15 °C 10 km+ - Var Var 2 kt METAR SBBR 170700Z VRB02KT CAVOK 15/11 Q1021
03:00
V
14 °C 10 km+ - 290° 290° 3 kt METAR SBBR 170600Z 29003KT CAVOK 14/11 Q1021
Cambiar esta información